Latest Weather Observations for Wynyard

IDT60801

Issued at 12:11 pm EST Thursday 24 May 2018 (issued every 10 minutes, with the page automatically refreshed every 10 minutes)

About weather observations | Map of weather stations | Latest weather observations for TAS | Other Formats
Station Details ID: 091107 Name: WYNYARD AIRPORT Lat: -41.00 Lon: 145.73 Height: 12.0 m
Data from the previous 72 hours. | See also: Recent months at Wynyard
Date/Time
EST
Temp
°C
App
Temp
°C
Dew
Point
°C
Rel
Hum
%
Delta-T
°C
Wind Press
QNH
hPa
Press
MSL
hPa
Rain since
9am
mm
Dir  Spd
km/h
Gust
km/h
Spd
kts
Gust
kts
24/12:00pm 13.4 7.9 4.0 53 4.2 SSW 22 32 12 17 1024.2 1024.2 0.0
24/11:30am 13.9 8.2 5.0 55 4.1 SW 24 33 13 18 1024.5 1024.5 0.0
24/11:00am 13.2 6.7 4.6 56 3.9 SW 28 39 15 21 1024.5 1024.5 0.0
24/10:30am 12.9 7.2 4.8 58 3.7 WSW 24 30 13 16 1024.7 1024.7 0.0
24/10:00am 12.5 8.4 6.1 65 3.0 WSW 17 22 9 12 1024.6 1024.6 0.0
24/09:30am 11.6 7.6 6.5 71 2.4 W 17 20 9 11 1024.6 1024.6 0.0
24/09:00am 10.2 6.5 6.2 76 1.8 WNW 15 20 8 11 1024.6 1024.6 0.0
24/08:30am 9.1 4.9 5.5 78 1.6 WNW 17 20 9 11 1024.5 1024.5 0.0
24/08:00am 6.8 3.0 3.8 81 1.3 WNW 13 17 7 9 1024.4 1024.4 0.0
24/07:30am 8.0 3.5 4.4 78 1.6 NW 17 20 9 11 1024.2 1024.2 0.0
24/07:00am 8.0 3.9 4.4 78 1.6 NW 15 17 8 9 1024.2 1024.2 0.0
24/06:30am 7.7 5.2 3.9 77 1.6 NW 6 11 3 6 1023.9 1023.9 0.0
24/06:00am 8.3 4.2 4.1 75 1.8 WNW 15 19 8 10 1023.4 1023.4 0.0
24/05:30am 7.7 3.8 3.6 75 1.8 W 13 19 7 10 1023.2 1023.2 0.0
24/05:00am 8.7 4.6 4.3 74 1.9 W 15 22 8 12 1022.9 1022.9 0.0
24/04:30am 8.3 5.0 4.3 76 1.7 W 11 19 6 10 1022.6 1022.6 0.0
24/04:00am 7.8 4.5 4.7 81 1.4 W 11 15 6 8 1022.5 1022.5 0.0
24/03:30am 6.2 3.6 4.4 88 0.8 WNW 7 9 4 5 1022.7 1022.7 0.0
24/03:00am 8.0 5.4 6.0 87 0.9 NW 9 13 5 7 1022.9 1022.9 0.0
24/02:30am 7.9 5.2 5.5 85 1.1 NW 9 13 5 7 1022.7 1022.7 0.0
24/02:00am 8.3 6.3 6.4 88 0.9 NW 6 7 3 4 1022.5 1022.5 0.0
24/01:30am 7.7 4.6 5.7 87 0.9 WNW 11 13 6 7 1022.5 1022.5 0.0
24/01:00am 8.3 4.2 6.3 87 0.9 WNW 17 19 9 10 1022.4 1022.4 0.0
24/12:30am 8.2 3.6 6.5 89 0.8 W 20 24 11 13 1022.7 1022.7 0.0
24/12:00am 7.5 3.0 6.0 90 0.7 W 19 20 10 11 1022.9 1022.9 0.0
 
Date/Time
EST
Temp
°C
App
Temp
°C
Dew
Point
°C
Rel
Hum
%
Delta-T
°C
Wind Press
QNH
hPa
Press
MSL
hPa
Rain since
9am
mm
Dir  Spd
km/h
Gust
km/h
Spd
kts
Gust
kts
23/11:30pm 7.7 3.6 6.3 91 0.6 W 17 19 9 10 1023.0 1023.0 0.0
23/11:00pm 7.8 3.2 5.8 87 0.9 W 19 20 10 11 1023.1 1023.1 0.0
23/10:30pm 8.2 4.1 6.2 87 0.9 W 17 19 9 10 1023.1 1023.1 0.0
23/10:00pm 9.1 5.4 6.5 84 1.2 WNW 15 19 8 10 1023.2 1023.2 0.0
23/09:30pm 10.7 7.7 7.8 82 1.4 WNW 13 17 7 9 1023.1 1023.1 0.0
23/09:00pm 10.9 7.5 7.6 80 1.6 WNW 15 17 8 9 1023.0 1023.0 0.0
23/08:30pm 12.2 9.8 8.5 78 1.8 NW 11 15 6 8 1022.8 1022.8 0.0
23/08:00pm 12.3 9.6 8.8 79 1.7 WNW 13 17 7 9 1022.8 1022.8 0.0
23/07:30pm 12.1 9.2 8.2 77 1.9 WNW 13 19 7 10 1022.4 1022.4 0.0
23/07:00pm 12.4 10.0 8.5 77 1.9 NW 11 13 6 7 1022.3 1022.3 0.0
23/06:30pm 12.5 9.6 8.2 75 2.1 NW 13 17 7 9 1021.9 1021.9 0.0
23/06:00pm 12.5 10.0 8.0 74 2.2 WNW 11 15 6 8 1021.5 1021.5 0.0
23/05:30pm 12.0 8.5 7.3 73 2.3 W 15 19 8 10 1021.2 1021.2 0.0
23/05:00pm 13.0 8.6 7.2 68 2.8 WSW 20 32 11 17 1020.9 1020.9 0.0
23/04:30pm 13.9 8.5 7.9 67 3.0 WSW 26 39 14 21 1020.8 1020.8 0.0
23/04:00pm 14.3 9.3 8.0 66 3.1 W 24 41 13 22 1020.6 1020.6 0.0
23/03:30pm 14.5 9.5 8.0 65 3.2 W 24 33 13 18 1020.2 1020.2 0.0
23/03:00pm 14.9 10.0 8.4 65 3.3 W 24 35 13 19 1020.0 1020.0 0.0
23/02:30pm 15.1 8.6 8.1 63 3.5 WSW 32 39 17 21 1019.9 1019.9 0.0
23/02:10pm 14.7 8.8 7.5 62 3.6 WSW 28 46 15 25 1020.0 1020.0 0.0
23/02:00pm 15.3 9.6 8.3 63 3.5 WSW 28 43 15 23 1020.1 1020.1 0.0
23/01:30pm 14.7 8.9 8.0 64 3.3 WSW 28 43 15 23 1020.3 1020.3 0.0
23/01:00pm 14.6 7.8 7.6 63 3.5 WSW 33 52 18 28 1020.2 1020.2 0.0
23/12:38pm 14.5 8.7 8.0 65 3.2 WSW 28 46 15 25 1020.3 1020.3 0.0
23/12:30pm 14.6 10.0 8.1 65 3.2 WSW 22 35 12 19 1020.3 1020.3 0.0
23/12:00pm 15.0 9.7 8.3 64 3.4 W 26 43 14 23 1020.9 1020.9 0.0
23/11:30am 14.4 7.8 7.7 64 3.3 WSW 32 52 17 28 1021.2 1021.2 0.0
23/11:25am 14.6 7.8 7.6 63 3.5 WSW 33 52 18 28 1021.2 1021.2 0.0
23/11:00am 14.5 7.7 7.5 63 3.4 WSW 33 44 18 24 1021.2 1021.2 0.0
23/10:39am 13.9 7.6 7.2 64 3.3 WSW 30 48 16 26 1021.1 1021.1 0.0
23/10:30am 14.0 7.6 7.1 63 3.4 WSW 30 44 16 24 1021.2 1021.2 0.0
23/10:00am 13.9 7.7 7.7 66 3.0 WSW 30 44 16 24 1021.1 1021.1 0.0
23/09:30am 13.4 7.1 7.6 68 2.8 W 30 41 16 22 1021.2 1021.2 0.0
23/09:12am 12.8 6.0 6.8 67 2.9 WSW 32 54 17 29 1021.3 1021.3 0.0
23/09:00am 12.5 7.0 7.4 71 2.5 WSW 26 43 14 23 1021.5 1021.5 0.2
23/08:30am 11.6 7.9 8.1 79 1.7 W 17 22 9 12 1021.4 1021.4 0.2
23/08:00am 11.4 7.2 8.4 82 1.5 W 20 30 11 16 1021.2 1021.2 0.2
23/07:30am 11.0 6.1 8.4 84 1.3 W 24 33 13 18 1020.9 1020.9 0.2
23/07:00am 11.0 5.6 8.2 83 1.4 W 26 37 14 20 1020.7 1020.7 0.2
23/06:30am 10.9 5.6 8.3 84 1.3 W 26 35 14 19 1020.4 1020.4 0.2
23/06:00am 10.8 5.4 8.2 84 1.3 W 26 35 14 19 1020.4 1020.4 0.2
23/05:30am 11.4 4.8 8.4 82 1.5 W 33 44 18 24 1020.6 1020.6 0.2
23/05:00am 11.0 6.1 8.6 85 1.2 W 24 32 13 17 1020.3 1020.3 0.2
23/04:30am 11.1 6.4 9.2 88 0.9 W 24 35 13 19 1020.3 1020.3 0.2
23/04:28am 11.0 6.3 9.3 89 0.8 W 24 32 13 17 1020.3 1020.3 0.2
23/04:00am 10.0 6.3 9.5 97 0.2 W 19 26 10 14 1020.6 1020.6 0.2
23/03:43am 8.4 5.1 8.0 97 0.2 W 15 17 8 9 1020.8 1020.8 0.2
23/03:30am 8.1 4.3 7.7 97 0.2 W 17 19 9 10 1020.9 1020.9 0.2
23/03:00am 5.3 1.3 4.7 96 0.3 WNW 15 15 8 8 1021.0 1021.0 0.2
23/02:30am 5.9 2.0 5.3 96 0.3 WNW 15 17 8 9 1021.1 1021.1 0.2
23/02:00am 5.1 0.6 4.4 95 0.3 W 17 17 9 9 1021.4 1021.4 0.2
23/01:30am 4.8 0.6 3.9 94 0.4 WNW 15 17 8 9 1021.4 1021.4 0.2
23/01:00am 5.6 1.5 4.6 93 0.4 W 15 17 8 9 1021.6 1021.6 0.2
23/12:30am 6.3 1.5 4.9 91 0.6 WNW 19 19 10 10 1021.7 1021.7 0.2
23/12:00am 6.4 2.0 5.0 91 0.6 WNW 17 19 9 10 1021.8 1021.8 0.2
 
Date/Time
EST
Temp
°C
App
Temp
°C
Dew
Point
°C
Rel
Hum
%
Delta-T
°C
Wind Press
QNH
hPa
Press
MSL
hPa
Rain since
9am
mm
Dir  Spd
km/h
Gust
km/h
Spd
kts
Gust
kts
22/11:30pm 5.6 3.0 4.2 91 0.6 WSW 7 11 4 6 1021.8 1021.8 0.2
22/11:00pm 6.0 2.6 3.8 86 0.9 WNW 11 15 6 8 1021.9 1021.9 0.2
22/10:30pm 6.1 2.4 4.4 89 0.7 W 13 15 7 8 1021.9 1021.9 0.2
22/10:00pm 7.4 4.6 5.2 86 1.0 WNW 9 13 5 7 1022.0 1022.0 0.2
22/09:30pm 7.7 4.9 5.3 85 1.1 W 9 11 5 6 1021.9 1021.9 0.2
22/09:00pm 8.6 5.2 6.1 84 1.1 WSW 13 15 7 8 1021.7 1021.7 0.2
22/08:30pm 6.8 2.8 4.8 87 0.9 W 15 17 8 9 1021.7 1021.7 0.2
22/08:00pm 5.9 2.0 3.4 84 1.0 W 13 15 7 8 1021.5 1021.5 0.2
22/07:30pm 7.0 2.9 4.3 83 1.2 W 15 17 8 9 1021.3 1021.3 0.2
22/07:00pm 7.5 4.1 3.9 78 1.5 W 11 13 6 7 1021.3 1021.3 0.2
22/06:30pm 9.3 5.3 4.7 73 2.0 WNW 15 17 8 9 1021.2 1021.2 0.2
22/06:00pm 9.4 5.7 4.4 71 2.2 W 13 15 7 8 1021.0 1021.0 0.2
22/05:30pm 10.5 6.0 4.2 65 2.8 W 17 26 9 14 1020.5 1020.5 0.2
22/05:00pm 10.9 6.8 4.1 63 3.0 W 15 20 8 11 1020.0 1020.0 0.2
22/04:30pm 12.2 8.2 4.7 60 3.4 WSW 15 20 8 11 1019.7 1019.7 0.2
22/04:00pm 13.4 9.0 4.6 55 4.0 SW 17 24 9 13 1019.2 1019.2 0.2
22/03:30pm 14.0 8.3 5.1 55 4.2 WSW 24 35 13 19 1019.0 1019.0 0.2
22/03:00pm 15.0 10.2 5.5 53 4.5 SW 20 32 11 17 1018.4 1018.4 0.2
22/02:30pm 14.7 8.1 4.4 50 4.8 WSW 28 41 15 22 1018.0 1018.0 0.2
22/02:00pm 15.0 8.5 4.7 50 4.8 WSW 28 44 15 24 1017.8 1017.8 0.2
22/01:30pm 14.6 6.1 3.4 47 5.1 WSW 37 56 20 30 1017.8 1017.8 0.0
22/01:24pm 14.9 7.4 3.7 47 5.1 SW 32 56 17 30 1017.7 1017.7 0.0
22/01:00pm 15.6 9.7 5.8 52 4.7 SW 26 39 14 21 1017.7 1017.7 0.0
22/12:34pm 14.8 8.0 5.3 53 4.5 SW 30 48 16 26 1017.5 1017.5 0.0
22/12:30pm 14.4 7.1 4.7 52 4.5 SW 32 48 17 26 1017.4 1017.4 0.0
22/12:13pm 15.0 8.5 4.7 50 4.8 SW 28 48 15 26 1017.3 1017.3 0.0
22/12:00pm 15.1 10.2 5.3 52 4.6 SW 20 33 11 18 1017.3 1017.3 0.0
22/11:30am 15.2 8.1 6.2 55 4.3 WSW 33 50 18 27 1017.0 1017.0 0.0
22/11:03am 14.9 8.3 6.2 56 4.2 WSW 30 48 16 26 1016.8 1016.9 0.0
22/11:00am 14.9 7.9 6.2 56 4.2 WSW 32 48 17 26 1016.8 1016.9 0.0
22/10:30am 14.2 6.8 6.6 60 3.7 WSW 35 56 19 30 1016.5 1016.6 0.0
22/10:01am 13.7 6.7 6.8 63 3.3 WSW 33 52 18 28 1016.1 1016.2 0.0
22/10:00am 13.8 7.0 6.9 63 3.3 WSW 32 41 17 22 1016.1 1016.2 0.0
22/09:30am 13.3 5.9 6.9 65 3.1 WSW 35 46 19 25 1015.9 1016.0 0.0
22/09:01am 12.8 5.7 6.4 65 3.0 WSW 33 52 18 28 1015.7 1015.8 0.0
22/09:00am 12.7 5.8 6.3 65 3.0 WSW 32 46 17 25 1015.7 1015.8 0.0
22/08:30am 12.1 5.5 5.9 66 2.9 WSW 30 43 16 23 1015.6 1015.7 0.0
22/08:00am 11.5 5.3 6.0 69 2.6 WSW 28 39 15 21 1015.2 1015.3 0.0
22/07:54am 11.5 5.3 6.0 69 2.6 WSW 28 46 15 25 1015.2 1015.3 0.0
22/07:30am 11.2 5.7 5.9 70 2.5 WSW 24 32 13 17 1015.0 1015.1 0.0
22/07:00am 11.5 5.6 6.0 69 2.6 WSW 26 46 14 25 1014.5 1014.6 0.0
22/06:30am 11.8 6.5 6.7 71 2.4 WSW 24 30 13 16 1014.0 1014.1 0.0
22/06:00am 11.7 7.0 6.2 69 2.6 WSW 20 28 11 15 1013.9 1014.0 0.0
22/05:30am 12.1 6.8 6.6 69 2.6 WSW 24 37 13 20 1013.7 1013.8 0.0
22/05:00am 12.1 7.6 7.0 71 2.4 WSW 20 33 11 18 1012.8 1012.9 0.0
22/04:30am 12.9 6.6 7.4 69 2.7 WSW 30 44 16 24 1012.5 1012.6 0.0
22/04:00am 13.0 6.4 7.7 70 2.6 WSW 32 46 17 25 1012.3 1012.4 0.0
22/03:30am 13.4 7.7 8.5 72 2.4 WSW 28 50 15 27 1012.2 1012.3 0.0
22/03:04am 13.4 6.5 8.7 73 2.4 W 35 54 19 29 1011.8 1011.9 0.0
22/03:00am 13.5 6.2 8.8 73 2.4 W 37 54 20 29 1011.8 1011.9 0.0
22/02:44am 13.4 6.8 8.7 73 2.4 W 33 52 18 28 1011.5 1011.6 0.0
22/02:30am 13.7 6.7 8.5 71 2.6 W 35 50 19 27 1011.5 1011.6 0.0
22/02:00am 13.5 6.7 9.2 75 2.2 W 35 57 19 31 1011.4 1011.5 0.0
22/01:30am 13.5 8.2 9.7 78 1.9 W 28 48 15 26 1011.0 1011.1 0.0
22/01:06am 14.1 7.9 9.3 73 2.5 W 32 50 17 27 1011.1 1011.2 0.0
22/01:00am 14.2 8.0 9.2 72 2.6 WSW 32 44 17 24 1011.1 1011.2 0.0
22/12:35am 13.9 8.1 9.5 75 2.3 W 30 50 16 27 1010.8 1010.9 0.0
22/12:30am 13.7 8.3 9.6 76 2.1 W 28 39 15 21 1010.9 1011.0 0.0
22/12:00am 13.5 7.7 9.4 76 2.1 W 30 50 16 27 1011.2 1011.3 0.0
 
Date/Time
EST
Temp
°C
App
Temp
°C
Dew
Point
°C
Rel
Hum
%
Delta-T
°C
Wind Press
QNH
hPa
Press
MSL
hPa
Rain since
9am
mm
Dir  Spd
km/h
Gust
km/h
Spd
kts
Gust
kts
21/11:57pm 13.6 7.4 9.3 75 2.2 W 32 50 17 27 1011.2 1011.3 0.0
21/11:30pm 13.5 8.1 9.4 76 2.1 W 28 43 15 23 1010.9 1011.0 0.0
21/11:15pm 13.7 6.5 9.0 73 2.4 W 37 56 20 30 1010.7 1010.8 0.0
21/11:00pm 13.6 6.3 8.9 73 2.4 W 37 54 20 29 1010.7 1010.8 0.0
21/10:30pm 13.3 6.8 8.8 74 2.3 W 33 65 18 35 1011.1 1011.2 0.0
21/10:14pm 13.2 6.7 8.9 75 2.2 W 33 52 18 28 1011.0 1011.1 0.0
21/10:00pm 12.9 7.7 9.0 77 2.0 W 26 43 14 23 1011.2 1011.3 0.0
21/09:30pm 12.8 7.1 8.5 75 2.1 W 28 39 15 21 1011.5 1011.6 0.0
21/09:00pm 12.6 6.1 8.1 74 2.2 W 32 41 17 22 1011.4 1011.5 0.0
21/08:30pm 12.4 5.7 8.1 75 2.1 W 33 46 18 25 1011.5 1011.6 0.0
21/08:01pm 12.2 5.4 9.2 82 1.5 W 35 54 19 29 1011.2 1011.3 0.0
21/08:00pm 12.2 5.1 9.4 83 1.4 W 37 54 20 29 1011.2 1011.3 0.0
21/07:54pm 12.4 5.6 9.1 80 1.7 W 35 54 19 29 1011.1 1011.2 0.0
21/07:30pm 12.4 5.5 8.7 78 1.8 W 35 46 19 25 1011.5 1011.6 0.0
21/07:03pm 12.3 5.7 8.6 78 1.8 W 33 52 18 28 1011.7 1011.8 0.0
21/07:00pm 12.4 5.4 8.5 77 1.9 W 35 52 19 28 1011.6 1011.7 0.0
21/06:30pm 12.4 4.8 9.1 80 1.7 W 39 57 21 31 1011.6 1011.7 0.0
21/06:28pm 12.4 4.8 9.1 80 1.7 W 39 57 21 31 1011.6 1011.7 0.0
21/06:21pm 12.1 5.7 9.3 83 1.4 W 33 46 18 25 1011.5 1011.6 0.0
21/06:01pm 12.2 5.2 9.8 85 1.2 W 37 52 20 28 1011.4 1011.5 0.0
21/06:00pm 12.2 5.2 9.8 85 1.2 W 37 52 20 28 1011.4 1011.5 0.0
21/05:37pm 12.1 5.4 9.8 86 1.2 W 35 54 19 29 1011.4 1011.5 0.0
21/05:36pm 12.1 5.1 9.8 86 1.2 W 37 54 20 29 1011.4 1011.5 0.0
21/05:30pm 12.0 5.0 9.9 87 1.1 W 37 59 20 32 1011.6 1011.7 0.0
21/05:27pm 11.9 5.7 10.1 89 0.9 WNW 33 59 18 32 1011.6 1011.7 0.0
21/05:24pm 11.8 6.5 10.0 89 0.9 WNW 28 59 15 32 1011.7 1011.8 0.0
21/05:09pm 11.6 6.7 10.0 90 0.8 WNW 26 37 14 20 1011.8 1011.9 0.0
21/05:00pm 11.9 5.6 9.8 87 1.1 W 33 44 18 24 1011.8 1011.9 0.0
21/04:58pm 11.9 5.6 9.6 86 1.2 W 33 44 18 24 1011.9 1012.0 0.0
21/04:30pm 12.0 4.8 9.2 83 1.4 W 37 46 20 25 1011.9 1012.0 0.0
21/04:13pm 12.4 6.1 9.1 80 1.7 W 32 54 17 29 1012.2 1012.3 0.0
21/04:00pm 12.4 6.5 8.9 79 1.8 WNW 30 44 16 24 1012.2 1012.3 0.0
21/03:30pm 12.7 6.7 8.6 76 2.0 W 30 39 16 21 1012.5 1012.6 0.0
21/03:00pm 12.3 8.5 9.0 80 1.7 WNW 19 30 10 16 1012.8 1012.9 0.0
21/02:30pm 12.5 8.4 8.8 78 1.8 WNW 20 28 11 15 1013.0 1013.1 0.0
21/02:03pm 12.3 6.7 8.6 78 1.8 W 28 48 15 26 1013.2 1013.3 0.0
21/02:00pm 12.7 7.4 8.6 76 2.0 W 26 37 14 20 1013.2 1013.3 0.0
21/01:36pm 12.3 7.3 9.7 84 1.3 WNW 26 35 14 19 1013.5 1013.6 0.0
21/01:30pm 12.1 7.3 10.3 89 0.9 WNW 26 37 14 20 1013.6 1013.7 0.0
21/01:12pm 11.6 6.9 9.2 85 1.2 WNW 24 32 13 17 1013.8 1013.9 0.0
21/01:00pm 12.8 8.1 9.1 78 1.9 WNW 24 35 13 19 1013.9 1014.0 0.0
21/12:30pm 12.8 6.7 8.1 73 2.3 W 30 41 16 22 1014.3 1014.4 0.0

Other Formats:

Comma delimited format used in spreadsheet applications
http://www.bom.gov.au/fwo/IDT60801/IDT60801.95957.axf

JavaScript Object Notation format (JSON) in row-major order
http://www.bom.gov.au/fwo/IDT60801/IDT60801.95957.json